Time;durP1;ratioP1;P1;durP2;ratioP2;P2;SDS_P1;SDS_P2;PMS_P1;PMS_P2;Temp;Humidity;BMP_temperature;BMP_pressure;BME280_temperature;BME280_humidity;BME280_pressure;Samples;Min_cycle;Max_cycle;Signal;HPM_P1;HPM_P2
2022/01/17 00:01:12;;;;;;;5.57;4.53;;;;;;;;;;5119324;28;20522;-62
2022/01/17 00:03:39;;;;;;;5.60;4.72;;;;;;;;;;5120161;28;20203;-62
2022/01/17 00:06:07;;;;;;;5.43;4.47;;;;;;;;;;5120026;27;20203;-63
2022/01/17 00:08:40;;;;;;;5.13;4.57;;;;;;;;;;5119221;28;20206;-63
2022/01/17 00:11:08;;;;;;;5.10;4.60;;;;;;;;;;5118952;28;20309;-63
2022/01/17 00:13:35;;;;;;;5.10;4.60;;;;;;;;;;5119657;28;20210;-63
2022/01/17 00:16:09;;;;;;;4.85;4.30;;;;;;;;;;5118987;28;20203;-63
2022/01/17 00:19:06;;;;;;;4.75;4.35;;;;;;;;;;5115818;28;20253;-65
2022/01/17 00:21:34;;;;;;;4.68;4.18;;;;;;;;;;5119480;28;20219;-63
2022/01/17 00:24:01;;;;;;;4.53;4.13;;;;;;;;;;5119541;28;20225;-62
2022/01/17 00:26:29;;;;;;;4.57;3.83;;;;;;;;;;5120132;28;20458;-63
2022/01/17 00:28:56;;;;;;;4.50;4.07;;;;;;;;;;5119348;28;20203;-62
2022/01/17 00:31:25;;;;;;;4.32;3.92;;;;;;;;;;5119162;28;20517;-64
2022/01/17 00:33:52;;;;;;;4.38;3.90;;;;;;;;;;5119363;28;20491;-63
2022/01/17 00:36:20;;;;;;;4.35;3.95;;;;;;;;;;5119097;28;20206;-63
2022/01/17 00:38:47;;;;;;;4.15;3.75;;;;;;;;;;5118900;28;20217;-63
2022/01/17 00:41:14;;;;;;;4.70;4.20;;;;;;;;;;5118621;28;20195;-63
2022/01/17 00:43:42;;;;;;;4.80;4.28;;;;;;;;;;5117976;28;20191;-63
2022/01/17 00:46:10;;;;;;;4.55;4.15;;;;;;;;;;5118797;28;20202;-63
2022/01/17 00:48:39;;;;;;;4.20;3.80;;;;;;;;;;5118893;28;20199;-63
2022/01/17 00:51:06;;;;;;;4.43;3.63;;;;;;;;;;5118878;28;20233;-64
2022/01/17 00:53:36;;;;;;;4.43;3.97;;;;;;;;;;5118939;28;20222;-63
2022/01/17 00:56:04;;;;;;;4.15;3.65;;;;;;;;;;5118289;28;20203;-63
2022/01/17 00:58:31;;;;;;;4.28;3.72;;;;;;;;;;5118603;28;20202;-64
2022/01/17 01:00:59;;;;;;;4.47;4.07;;;;;;;;;;5117794;28;20199;-64
2022/01/17 01:03:26;;;;;;;4.43;4.03;;;;;;;;;;5117924;28;20230;-63
2022/01/17 01:05:55;;;;;;;4.63;4.22;;;;;;;;;;5117971;28;20574;-63
2022/01/17 01:08:22;;;;;;;3.90;3.60;;;;;;;;;;5118162;27;20546;-64
2022/01/17 01:10:49;;;;;;;4.20;3.80;;;;;;;;;;5118029;28;20222;-63
2022/01/17 01:13:21;;;;;;;4.05;3.70;;;;;;;;;;5117879;28;20195;-64
2022/01/17 01:16:09;;;;;;;3.67;3.38;;;;;;;;;;5118070;28;20599;-64
2022/01/17 01:18:49;;;;;;;4.32;3.92;;;;;;;;;;5117709;28;20211;-64
2022/01/17 01:21:43;;;;;;;4.20;3.90;;;;;;;;;;5117391;28;20227;-64
2022/01/17 01:29:47;;;;;;;4.10;3.70;;;;;;;;;;5117207;28;20198;-64
2022/01/17 01:32:19;;;;;;;3.67;3.38;;;;;;;;;;5116202;28;20528;-64
2022/01/17 01:34:50;;;;;;;3.88;3.58;;;;;;;;;;5114184;28;20210;-64
2022/01/17 01:37:19;;;;;;;3.70;3.40;;;;;;;;;;5117099;28;20207;-64
2022/01/17 01:39:49;;;;;;;3.72;3.42;;;;;;;;;;5116828;28;20206;-64
2022/01/17 01:42:19;;;;;;;4.00;3.70;;;;;;;;;;5117372;28;20590;-64
2022/01/17 01:44:47;;;;;;;3.72;3.42;;;;;;;;;;5117452;28;20260;-63
2022/01/17 01:47:14;;;;;;;3.70;3.40;;;;;;;;;;5116456;28;20199;-63
2022/01/17 01:49:42;;;;;;;4.03;3.70;;;;;;;;;;5117137;28;20234;-70
2022/01/17 01:52:09;;;;;;;3.88;3.55;;;;;;;;;;5117375;28;20231;-64
2022/01/17 01:54:38;;;;;;;4.15;3.85;;;;;;;;;;5116862;28;20210;-64
2022/01/17 01:57:06;;;;;;;3.45;3.17;;;;;;;;;;5116975;28;20609;-64
2022/01/17 01:59:33;;;;;;;3.70;3.40;;;;;;;;;;5116933;28;20213;-63
2022/01/17 02:02:00;;;;;;;3.65;3.35;;;;;;;;;;5117204;28;20485;-64
2022/01/17 02:04:29;;;;;;;3.60;3.30;;;;;;;;;;5116966;28;20203;-63
2022/01/17 02:06:56;;;;;;;3.88;3.47;;;;;;;;;;5116738;28;20199;-63
2022/01/17 02:09:24;;;;;;;3.55;3.25;;;;;;;;;;5115964;28;20203;-63
2022/01/17 02:11:53;;;;;;;3.70;3.40;;;;;;;;;;5115919;28;20287;-63
2022/01/17 02:14:20;;;;;;;3.78;3.47;;;;;;;;;;5115919;28;20199;-64
2022/01/17 02:16:50;;;;;;;3.40;3.10;;;;;;;;;;5117015;28;20207;-64
2022/01/17 02:19:20;;;;;;;3.63;3.33;;;;;;;;;;5116085;28;20205;-64
2022/01/17 02:21:50;;;;;;;3.70;3.40;;;;;;;;;;5116480;28;20482;-64
2022/01/17 02:24:20;;;;;;;3.95;3.65;;;;;;;;;;5116480;28;20218;-64
2022/01/17 02:26:47;;;;;;;3.30;3.00;;;;;;;;;;5117218;28;20199;-64
2022/01/17 02:29:15;;;;;;;3.70;3.40;;;;;;;;;;5117672;28;20207;-63
2022/01/17 02:31:43;;;;;;;3.33;3.03;;;;;;;;;;5116870;28;20238;-63
2022/01/17 02:34:10;;;;;;;3.65;3.35;;;;;;;;;;5117182;28;20209;-64
2022/01/17 02:36:37;;;;;;;3.50;3.20;;;;;;;;;;5117164;28;20194;-64
2022/01/17 02:39:06;;;;;;;3.50;3.20;;;;;;;;;;5116791;28;20209;-64
2022/01/17 02:41:35;;;;;;;3.80;3.50;;;;;;;;;;5117156;28;20498;-63
2022/01/17 02:44:02;;;;;;;3.35;3.05;;;;;;;;;;5117023;28;20531;-63
2022/01/17 02:46:30;;;;;;;3.47;3.17;;;;;;;;;;5116508;28;20203;-64
2022/01/17 02:48:58;;;;;;;3.35;3.05;;;;;;;;;;5117134;28;20476;-63
2022/01/17 02:51:26;;;;;;;3.70;3.40;;;;;;;;;;5116447;28;20230;-63
2022/01/17 02:53:53;;;;;;;3.35;3.05;;;;;;;;;;5116878;28;20199;-64
2022/01/17 02:56:22;;;;;;;2.90;2.70;;;;;;;;;;5116533;28;20589;-64
2022/01/17 02:58:50;;;;;;;3.35;3.08;;;;;;;;;;5116967;28;20507;-64
2022/01/17 03:01:18;;;;;;;3.30;3.00;;;;;;;;;;5116834;28;20195;-64
2022/01/17 03:03:46;;;;;;;3.00;2.80;;;;;;;;;;5116739;28;20203;-64
2022/01/17 03:06:14;;;;;;;3.22;3.00;;;;;;;;;;5116076;28;20206;-64
2022/01/17 03:08:42;;;;;;;3.20;3.00;;;;;;;;;;5116495;28;20195;-64
2022/01/17 03:11:12;;;;;;;3.10;2.85;;;;;;;;;;5116512;28;20199;-64
2022/01/17 03:13:41;;;;;;;3.08;2.88;;;;;;;;;;5116818;28;20203;-64
2022/01/17 03:16:10;;;;;;;3.45;3.17;;;;;;;;;;5117191;28;20210;-64
2022/01/17 03:18:39;;;;;;;2.78;2.58;;;;;;;;;;5116258;28;20594;-64
2022/01/17 03:21:07;;;;;;;3.15;2.88;;;;;;;;;;5119013;28;20223;-63
2022/01/17 03:23:35;;;;;;;3.20;3.00;;;;;;;;;;5120734;28;20195;-64
2022/01/17 03:26:02;;;;;;;3.05;2.85;;;;;;;;;;5120264;28;20214;-64
2022/01/17 03:28:30;;;;;;;2.78;2.58;;;;;;;;;;5120088;28;20202;-64
2022/01/17 03:30:59;;;;;;;2.97;2.78;;;;;;;;;;5120461;28;20252;-64
2022/01/17 03:33:27;;;;;;;2.63;2.42;;;;;;;;;;5104803;28;20226;-64
2022/01/17 03:35:55;;;;;;;3.10;2.90;;;;;;;;;;5100705;28;20203;-64
2022/01/17 03:38:24;;;;;;;2.75;2.55;;;;;;;;;;5120048;28;20202;-64
2022/01/17 03:40:51;;;;;;;2.90;2.70;;;;;;;;;;5120468;28;20605;-63
2022/01/17 03:43:19;;;;;;;2.65;2.45;;;;;;;;;;5120012;28;20491;-63
2022/01/17 03:45:47;;;;;;;2.78;2.58;;;;;;;;;;5120206;28;20198;-64
2022/01/17 03:48:16;;;;;;;2.78;2.58;;;;;;;;;;5119697;28;20207;-64
2022/01/17 03:50:43;;;;;;;2.60;2.40;;;;;;;;;;5119828;28;20218;-63
2022/01/17 03:53:11;;;;;;;2.20;2.10;;;;;;;;;;5112296;28;20219;-63
2022/01/17 03:55:38;;;;;;;2.60;2.40;;;;;;;;;;5119827;28;20203;-64
2022/01/17 03:58:06;;;;;;;2.75;2.55;;;;;;;;;;5119594;28;20210;-64
2022/01/17 04:00:36;;;;;;;2.40;2.20;;;;;;;;;;5120486;28;20620;-63
2022/01/17 04:03:04;;;;;;;2.60;2.40;;;;;;;;;;5119232;28;20199;-63
2022/01/17 04:05:33;;;;;;;2.58;2.38;;;;;;;;;;5119741;28;20551;-63
2022/01/17 04:08:00;;;;;;;2.50;2.30;;;;;;;;;;5119005;28;20199;-64
2022/01/17 04:10:28;;;;;;;2.20;2.10;;;;;;;;;;5119476;28;20668;-64
2022/01/17 04:13:01;;;;;;;2.55;2.35;;;;;;;;;;5119246;28;20222;-63
2022/01/17 04:15:29;;;;;;;2.42;2.22;;;;;;;;;;5118971;28;20697;-63
2022/01/17 04:17:56;;;;;;;2.50;2.30;;;;;;;;;;5118620;28;20276;-63
2022/01/17 04:20:29;;;;;;;2.50;2.30;;;;;;;;;;5119030;28;20637;-64
2022/01/17 04:22:59;;;;;;;2.42;2.22;;;;;;;;;;5118552;28;20191;-63
2022/01/17 04:25:29;;;;;;;2.13;1.98;;;;;;;;;;5119339;28;20210;-64
2022/01/17 04:27:57;;;;;;;1.88;1.77;;;;;;;;;;5118239;28;20245;-64
2022/01/17 04:30:24;;;;;;;2.20;2.05;;;;;;;;;;5097695;28;20199;-63
2022/01/17 04:32:52;;;;;;;2.45;2.25;;;;;;;;;;5115428;28;20223;-64
2022/01/17 04:35:21;;;;;;;2.58;2.38;;;;;;;;;;5118547;28;20206;-63
2022/01/17 04:37:49;;;;;;;2.15;2.05;;;;;;;;;;5118690;28;20199;-63
2022/01/17 04:40:18;;;;;;;2.50;2.30;;;;;;;;;;5118658;28;20206;-64
2022/01/17 04:42:48;;;;;;;2.10;2.00;;;;;;;;;;5118784;28;20616;-64
2022/01/17 04:45:18;;;;;;;2.20;2.00;;;;;;;;;;5118355;28;20203;-63
2022/01/17 04:47:47;;;;;;;2.35;2.15;;;;;;;;;;5117978;28;20199;-64
2022/01/17 04:50:15;;;;;;;2.10;2.00;;;;;;;;;;5118253;28;20203;-64
2022/01/17 04:52:43;;;;;;;2.30;2.10;;;;;;;;;;5118116;28;20246;-63
2022/01/17 04:55:12;;;;;;;2.00;1.90;;;;;;;;;;5118107;28;20207;-64
2022/01/17 04:57:41;;;;;;;2.22;2.03;;;;;;;;;;5117916;28;20203;-64
2022/01/17 05:00:10;;;;;;;2.00;1.90;;;;;;;;;;5117901;28;20546;-64
2022/01/17 05:02:37;;;;;;;2.00;1.90;;;;;;;;;;5118137;28;20475;-64
2022/01/17 05:05:04;;;;;;;2.05;1.95;;;;;;;;;;5118209;28;20229;-64
2022/01/17 05:07:33;;;;;;;2.05;1.95;;;;;;;;;;5117108;28;20206;-64
2022/01/17 05:10:00;;;;;;;2.42;2.25;;;;;;;;;;5117340;28;20299;-63
2022/01/17 05:12:27;;;;;;;2.00;1.90;;;;;;;;;;5117077;28;20222;-64
2022/01/17 05:14:57;;;;;;;2.00;1.90;;;;;;;;;;5118354;28;20230;-63
2022/01/17 05:20:08;;;;;;;1.88;1.77;;;;;;;;;;5115273;28;20652;-64
2022/01/17 05:22:35;;;;;;;1.80;1.70;;;;;;;;;;5117385;28;20516;-63
2022/01/17 05:25:04;;;;;;;1.80;1.70;;;;;;;;;;5118543;28;20485;-63
2022/01/17 05:27:31;;;;;;;2.10;2.00;;;;;;;;;;5117192;28;20202;-63
2022/01/17 05:30:00;;;;;;;2.10;2.00;;;;;;;;;;5118084;28;20698;-63
2022/01/17 05:32:27;;;;;;;1.98;1.88;;;;;;;;;;5117217;28;20237;-63
2022/01/17 05:34:55;;;;;;;1.80;1.70;;;;;;;;;;5117778;28;20221;-64
2022/01/17 05:37:22;;;;;;;2.53;1.85;;;;;;;;;;5117895;28;20468;-62
2022/01/17 05:39:50;;;;;;;1.90;1.80;;;;;;;;;;5116811;28;20214;-63
2022/01/17 05:42:18;;;;;;;1.80;1.70;;;;;;;;;;5116426;28;20195;-62
2022/01/17 05:44:46;;;;;;;2.03;1.92;;;;;;;;;;5117244;28;20510;-63
2022/01/17 05:47:15;;;;;;;1.90;1.80;;;;;;;;;;5117187;28;20226;-64
2022/01/17 05:49:42;;;;;;;1.83;1.70;;;;;;;;;;5116844;28;20206;-63
2022/01/17 05:52:10;;;;;;;1.83;1.73;;;;;;;;;;5116079;28;20203;-63
2022/01/17 05:54:37;;;;;;;1.83;1.73;;;;;;;;;;5115427;28;20314;-63
2022/01/17 05:57:05;;;;;;;1.60;1.50;;;;;;;;;;5116106;28;20218;-63
2022/01/17 05:59:32;;;;;;;1.80;1.70;;;;;;;;;;5116008;28;20483;-63
2022/01/17 06:02:00;;;;;;;1.95;1.85;;;;;;;;;;5116407;28;20206;-63
2022/01/17 06:04:29;;;;;;;1.77;1.63;;;;;;;;;;5115532;28;20245;-64
2022/01/17 06:06:56;;;;;;;1.75;1.65;;;;;;;;;;5115582;28;20207;-63
2022/01/17 06:09:23;;;;;;;1.60;1.50;;;;;;;;;;5113480;28;20199;-64
2022/01/17 06:11:51;;;;;;;1.77;1.67;;;;;;;;;;5115036;28;20232;-63
2022/01/17 06:14:19;;;;;;;1.60;1.50;;;;;;;;;;5114880;28;20226;-63
2022/01/17 06:16:47;;;;;;;1.60;1.50;;;;;;;;;;5115306;28;20195;-64
2022/01/17 06:19:14;;;;;;;1.67;1.58;;;;;;;;;;5114828;28;20578;-63
2022/01/17 06:21:43;;;;;;;1.50;1.40;;;;;;;;;;5115317;28;20227;-64
2022/01/17 06:24:10;;;;;;;1.70;1.60;;;;;;;;;;5114766;28;20586;-63
2022/01/17 06:26:39;;;;;;;1.60;1.50;;;;;;;;;;5115157;28;20206;-63
2022/01/17 06:29:06;;;;;;;1.48;1.38;;;;;;;;;;5114368;28;20202;-63
2022/01/17 06:31:34;;;;;;;1.50;1.40;;;;;;;;;;5113160;28;20639;-63
2022/01/17 06:34:01;;;;;;;1.52;1.42;;;;;;;;;;5114439;28;20660;-62
2022/01/17 06:36:29;;;;;;;1.60;1.50;;;;;;;;;;5114991;28;20203;-64
2022/01/17 06:38:57;;;;;;;1.40;1.30;;;;;;;;;;5114853;28;20674;-64
2022/01/17 06:41:25;;;;;;;1.50;1.40;;;;;;;;;;5115044;28;20195;-64
2022/01/17 06:43:52;;;;;;;1.40;1.30;;;;;;;;;;5114263;28;20187;-64
2022/01/17 06:46:20;;;;;;;1.70;1.60;;;;;;;;;;5114737;28;20478;-65
2022/01/17 06:48:47;;;;;;;1.40;1.30;;;;;;;;;;5114443;28;20214;-64
2022/01/17 06:51:15;;;;;;;1.60;1.50;;;;;;;;;;5115495;28;20230;-63
2022/01/17 06:53:43;;;;;;;1.45;1.35;;;;;;;;;;5115134;28;20311;-63
2022/01/17 06:56:12;;;;;;;1.52;1.42;;;;;;;;;;5119102;28;20198;-63
2022/01/17 06:58:42;;;;;;;1.83;1.30;;;;;;;;;;5118796;28;20210;-63
2022/01/17 07:01:10;;;;;;;1.42;1.33;;;;;;;;;;5118834;27;20201;-62
2022/01/17 07:03:37;;;;;;;1.42;1.33;;;;;;;;;;5119005;28;20191;-63
2022/01/17 07:06:05;;;;;;;1.52;1.42;;;;;;;;;;5118666;28;20202;-63
2022/01/17 07:08:32;;;;;;;1.55;1.45;;;;;;;;;;5118807;28;20220;-63
2022/01/17 07:11:00;;;;;;;1.40;1.30;;;;;;;;;;5119407;28;20214;-64
2022/01/17 07:13:28;;;;;;;1.42;1.25;;;;;;;;;;5118598;28;20219;-64
2022/01/17 07:15:56;;;;;;;1.65;1.20;;;;;;;;;;5119791;28;20210;-63
2022/01/17 07:18:23;;;;;;;1.50;1.40;;;;;;;;;;5117695;28;20502;-63
2022/01/17 07:20:50;;;;;;;1.50;1.40;;;;;;;;;;5118875;28;20234;-63
2022/01/17 07:23:18;;;;;;;1.50;1.40;;;;;;;;;;5118963;28;20195;-63
2022/01/17 07:25:46;;;;;;;1.38;1.27;;;;;;;;;;5118967;28;20586;-63
2022/01/17 07:28:14;;;;;;;1.33;1.23;;;;;;;;;;5119296;28;20195;-62
2022/01/17 07:30:42;;;;;;;1.38;1.27;;;;;;;;;;5118944;28;20210;-62
2022/01/17 07:33:10;;;;;;;1.40;1.30;;;;;;;;;;5118293;28;20214;-62
2022/01/17 07:35:37;;;;;;;1.60;1.50;;;;;;;;;;5118171;28;20598;-63
2022/01/17 07:38:05;;;;;;;1.67;1.58;;;;;;;;;;5118426;28;20207;-63
2022/01/17 07:40:32;;;;;;;1.30;1.20;;;;;;;;;;5117750;28;20191;-63
2022/01/17 07:43:00;;;;;;;1.33;1.23;;;;;;;;;;5118182;28;20729;-62
2022/01/17 07:45:30;;;;;;;1.40;1.30;;;;;;;;;;5118265;28;20195;-63
2022/01/17 07:50:44;;;;;;;1.20;1.20;;;;;;;;;;5118058;28;20194;-63
2022/01/17 07:53:13;;;;;;;1.20;1.13;;;;;;;;;;5117871;27;20215;-62
2022/01/17 07:55:40;;;;;;;1.48;1.38;;;;;;;;;;5118338;27;20249;-63
2022/01/17 07:58:07;;;;;;;1.45;1.35;;;;;;;;;;5118011;28;20533;-63
2022/01/17 08:00:35;;;;;;;1.45;1.35;;;;;;;;;;5118893;28;20203;-64
2022/01/17 08:03:06;;;;;;;1.45;1.30;;;;;;;;;;5118715;28;20490;-63
2022/01/17 08:05:33;;;;;;;1.67;1.58;;;;;;;;;;5116154;28;20585;-63
2022/01/17 08:08:01;;;;;;;1.50;1.40;;;;;;;;;;5117301;28;20198;-64
2022/01/17 08:10:30;;;;;;;1.42;1.33;;;;;;;;;;5117654;28;20632;-63
2022/01/17 08:12:58;;;;;;;1.70;1.60;;;;;;;;;;5117666;28;20211;-62
2022/01/17 08:15:25;;;;;;;1.50;1.40;;;;;;;;;;5117638;28;20731;-63
2022/01/17 08:17:54;;;;;;;1.45;1.35;;;;;;;;;;5117025;28;20199;-63
2022/01/17 08:20:22;;;;;;;1.80;1.70;;;;;;;;;;5116010;28;20288;-62
2022/01/17 08:22:50;;;;;;;1.60;1.50;;;;;;;;;;5116725;28;20227;-62
2022/01/17 08:25:18;;;;;;;1.50;1.40;;;;;;;;;;5115827;28;20191;-63
2022/01/17 08:27:45;;;;;;;1.50;1.40;;;;;;;;;;5116947;28;20207;-63
2022/01/17 08:30:13;;;;;;;1.63;1.52;;;;;;;;;;5116955;28;20215;-63
2022/01/17 08:32:40;;;;;;;1.30;1.20;;;;;;;;;;5117769;28;20203;-62
2022/01/17 08:35:08;;;;;;;1.60;1.50;;;;;;;;;;5117271;28;20199;-63
2022/01/17 08:37:37;;;;;;;1.60;1.50;;;;;;;;;;5116001;28;20593;-62
2022/01/17 08:40:06;;;;;;;1.50;1.40;;;;;;;;;;5116520;28;20575;-62
2022/01/17 08:42:33;;;;;;;1.45;1.35;;;;;;;;;;5095805;28;20210;-63
2022/01/17 08:45:01;;;;;;;1.33;1.23;;;;;;;;;;5115852;28;20256;-63
2022/01/17 08:47:28;;;;;;;1.60;1.50;;;;;;;;;;5115153;28;20210;-63
2022/01/17 08:49:56;;;;;;;1.60;1.50;;;;;;;;;;5116574;28;20277;-63
2022/01/17 08:52:23;;;;;;;1.85;1.40;;;;;;;;;;5115854;28;20516;-63
2022/01/17 08:54:53;;;;;;;1.60;1.50;;;;;;;;;;5115458;28;20225;-62
2022/01/17 08:57:21;;;;;;;1.73;1.63;;;;;;;;;;5114287;28;20593;-63
2022/01/17 08:59:48;;;;;;;1.40;1.30;;;;;;;;;;5115363;28;20598;-62
2022/01/17 09:02:16;;;;;;;1.60;1.50;;;;;;;;;;5115556;28;20195;-63
2022/01/17 09:04:43;;;;;;;1.45;1.35;;;;;;;;;;5115712;28;20210;-63
2022/01/17 09:07:10;;;;;;;1.40;1.30;;;;;;;;;;5115751;28;20203;-63
2022/01/17 09:09:38;;;;;;;1.40;1.30;;;;;;;;;;5115648;28;20199;-63
2022/01/17 09:12:08;;;;;;;1.65;1.40;;;;;;;;;;5114754;28;20222;-62
2022/01/17 09:14:36;;;;;;;1.60;1.50;;;;;;;;;;5098707;28;20222;-63
2022/01/17 09:17:06;;;;;;;1.63;1.48;;;;;;;;;;5115175;28;20546;-63
2022/01/17 09:19:34;;;;;;;2.40;1.73;;;;;;;;;;5115461;28;20694;-62
2022/01/17 09:22:02;;;;;;;2.92;1.40;;;;;;;;;;5075661;28;20477;-62
2022/01/17 09:24:29;;;;;;;3.30;1.80;;;;;;;;;;5074042;28;20197;-62
2022/01/17 09:26:57;;;;;;;4.28;1.67;;;;;;;;;;5074608;28;20201;-63
2022/01/17 09:29:25;;;;;;;4.18;1.60;;;;;;;;;;5074719;28;20204;-63
2022/01/17 09:31:53;;;;;;;7.70;3.05;;;;;;;;;;5074478;28;20208;-64
2022/01/17 09:34:20;;;;;;;20.00;18.10;;;;;;;;;;5073815;28;20235;-63
2022/01/17 09:36:47;;;;;;;17.85;16.45;;;;;;;;;;5075270;28;20209;-64
2022/01/17 09:39:15;;;;;;;16.67;15.27;;;;;;;;;;5074404;28;20200;-64
2022/01/17 09:41:43;;;;;;;15.68;14.48;;;;;;;;;;5074364;28;20220;-64
2022/01/17 09:44:10;;;;;;;14.65;13.52;;;;;;;;;;5074645;28;21072;-64
2022/01/17 09:46:43;;;;;;;14.73;13.40;;;;;;;;;;5074525;28;20199;-63
2022/01/17 09:49:21;;;;;;;13.38;12.38;;;;;;;;;;5074656;28;20717;-63
2022/01/17 09:52:14;;;;;;;12.50;11.40;;;;;;;;;;5075569;28;20212;-63
2022/01/17 09:54:43;;;;;;;13.40;12.02;;;;;;;;;;5075227;28;20227;-64
2022/01/17 09:57:11;;;;;;;11.93;11.02;;;;;;;;;;5074536;28;20215;-63
2022/01/17 09:59:39;;;;;;;264.23;235.15;;;;;;;;;;5074002;28;20201;-64
2022/01/17 10:02:08;;;;;;;150.80;134.02;;;;;;;;;;5058453;28;20189;-64
2022/01/17 10:04:37;;;;;;;124.85;111.53;;;;;;;;;;5073199;28;20193;-64
2022/01/17 10:07:06;;;;;;;125.30;112.22;;;;;;;;;;5074610;28;20234;-63
2022/01/17 10:09:35;;;;;;;116.10;103.70;;;;;;;;;;5072502;28;20246;-63
2022/01/17 10:12:04;;;;;;;105.97;94.75;;;;;;;;;;5074017;28;20212;-63
2022/01/17 10:14:35;;;;;;;100.28;89.68;;;;;;;;;;5073492;28;20273;-64
2022/01/17 10:17:03;;;;;;;99.47;88.75;;;;;;;;;;5071735;28;20361;-64
2022/01/17 10:19:32;;;;;;;92.80;82.68;;;;;;;;;;5071632;28;20192;-63
2022/01/17 10:22:02;;;;;;;87.38;77.95;;;;;;;;;;5071274;28;20193;-63
2022/01/17 10:24:37;;;;;;;85.10;75.25;;;;;;;;;;5072787;28;20196;-64
2022/01/17 10:27:17;;;;;;;78.65;70.05;;;;;;;;;;5072537;28;20203;-63
2022/01/17 10:35:19;;;;;;;86.05;72.38;;;;;;;;;;5072115;28;20613;-63
2022/01/17 10:38:04;;;;;;;79.85;69.20;;;;;;;;;;5073135;28;20212;-63
2022/01/17 10:40:33;;;;;;;74.57;65.40;;;;;;;;;;5072194;28;20200;-63
2022/01/17 10:43:02;;;;;;;72.82;63.80;;;;;;;;;;5072641;28;20204;-63
2022/01/17 10:45:33;;;;;;;69.80;60.85;;;;;;;;;;5074336;28;20240;-63
2022/01/17 10:48:02;;;;;;;64.38;57.40;;;;;;;;;;5073451;28;20262;-63
2022/01/17 10:50:32;;;;;;;63.50;56.17;;;;;;;;;;5073194;28;20204;-63
2022/01/17 10:53:00;;;;;;;62.15;54.65;;;;;;;;;;5073295;28;20211;-63
2022/01/17 10:55:28;;;;;;;58.72;51.92;;;;;;;;;;5073637;28;20223;-63
2022/01/17 10:57:56;;;;;;;56.40;47.28;;;;;;;;;;5072777;28;20207;-63
2022/01/17 11:00:25;;;;;;;54.72;48.80;;;;;;;;;;5073038;28;20265;-63
2022/01/17 11:02:53;;;;;;;76.20;63.97;;;;;;;;;;5073322;28;20619;-63
2022/01/17 11:05:22;;;;;;;63.85;56.25;;;;;;;;;;5074233;28;20207;-63
2022/01/17 11:07:52;;;;;;;57.53;51.20;;;;;;;;;;5073269;28;20215;-63
2022/01/17 11:10:21;;;;;;;55.47;49.42;;;;;;;;;;5069327;28;20520;-63
2022/01/17 11:12:50;;;;;;;58.00;48.70;;;;;;;;;;5071722;28;20201;-63
2022/01/17 11:15:18;;;;;;;52.30;46.40;;;;;;;;;;5072984;28;20255;-63
2022/01/17 11:17:51;;;;;;;50.53;45.03;;;;;;;;;;5073313;28;20243;-64
2022/01/17 11:20:20;;;;;;;48.97;42.65;;;;;;;;;;5064843;28;20269;-63
2022/01/17 11:22:48;;;;;;;46.35;41.47;;;;;;;;;;5097639;28;20602;-63
2022/01/17 11:25:18;;;;;;;45.08;40.28;;;;;;;;;;5113730;28;20214;-63
2022/01/17 11:27:46;;;;;;;43.55;38.22;;;;;;;;;;5113548;28;20229;-63
2022/01/17 11:30:15;;;;;;;41.50;37.00;;;;;;;;;;5112885;28;20195;-63
2022/01/17 11:32:43;;;;;;;40.83;36.53;;;;;;;;;;5112865;28;20529;-63
2022/01/17 11:35:11;;;;;;;38.67;34.65;;;;;;;;;;5111853;28;20211;-63
2022/01/17 11:37:39;;;;;;;230.77;186.60;;;;;;;;;;5113431;28;20203;-63
2022/01/17 11:40:09;;;;;;;166.38;132.98;;;;;;;;;;5112939;28;20207;-64
2022/01/17 11:42:39;;;;;;;134.50;106.82;;;;;;;;;;5116044;28;20203;-64
2022/01/17 11:45:22;;;;;;;123.05;95.90;;;;;;;;;;5115667;28;20199;-63
2022/01/17 11:47:50;;;;;;;120.78;92.07;;;;;;;;;;5116735;28;20267;-63
2022/01/17 11:50:43;;;;;;;115.53;91.38;;;;;;;;;;5107785;28;20199;-64
2022/01/17 11:53:29;;;;;;;106.43;83.82;;;;;;;;;;5114556;28;20210;-63
2022/01/17 11:55:56;;;;;;;105.47;81.95;;;;;;;;;;5116994;28;20218;-64
2022/01/17 11:58:25;;;;;;;105.68;80.88;;;;;;;;;;5116382;28;20198;-64
2022/01/17 12:01:10;;;;;;;101.40;76.13;;;;;;;;;;5117165;28;20497;-64
2022/01/17 12:03:41;;;;;;;97.55;75.90;;;;;;;;;;5115822;28;20703;-63
2022/01/17 12:06:19;;;;;;;111.43;93.75;;;;;;;;;;5115742;28;20199;-63
2022/01/17 12:08:46;;;;;;;100.65;82.38;;;;;;;;;;5116066;28;20211;-63
2022/01/17 12:11:26;;;;;;;98.50;78.05;;;;;;;;;;5116449;28;20202;-63
2022/01/17 12:13:59;;;;;;;96.13;76.60;;;;;;;;;;5115517;28;20195;-63
2022/01/17 12:16:37;;;;;;;89.85;69.93;;;;;;;;;;5115552;28;20203;-64
2022/01/17 12:19:07;;;;;;;87.40;68.32;;;;;;;;;;5115817;28;20206;-63
2022/01/17 12:21:35;;;;;;;83.90;66.88;;;;;;;;;;5115990;28;20225;-63
2022/01/17 12:24:29;;;;;;;80.57;64.35;;;;;;;;;;5116115;28;20199;-63
2022/01/17 12:27:04;;;;;;;76.00;61.30;;;;;;;;;;5101997;28;20250;-65
2022/01/17 12:29:40;;;;;;;72.47;59.63;;;;;;;;;;5115373;28;20256;-63
2022/01/17 12:32:08;;;;;;;71.15;56.53;;;;;;;;;;5115984;28;20301;-64
2022/01/17 12:34:42;;;;;;;68.20;55.25;;;;;;;;;;5115158;28;20227;-64
2022/01/17 12:37:25;;;;;;;62.28;52.75;;;;;;;;;;5114900;28;20469;-63
2022/01/17 12:39:52;;;;;;;60.80;52.65;;;;;;;;;;5113908;28;20479;-63
2022/01/17 12:42:20;;;;;;;62.58;51.13;;;;;;;;;;5114526;28;20252;-63
2022/01/17 12:44:50;;;;;;;61.55;50.75;;;;;;;;;;5114689;27;20195;-63
2022/01/17 12:47:18;;;;;;;55.20;47.40;;;;;;;;;;5114520;28;20217;-64
2022/01/17 12:49:45;;;;;;;55.00;46.85;;;;;;;;;;5114065;28;20705;-63
2022/01/17 12:52:12;;;;;;;54.60;45.08;;;;;;;;;;5113299;28;20195;-64
2022/01/17 12:54:40;;;;;;;55.30;43.72;;;;;;;;;;5115220;28;20210;-64
2022/01/17 12:57:07;;;;;;;49.67;41.65;;;;;;;;;;5114916;28;20229;-64
2022/01/17 12:59:35;;;;;;;48.65;42.30;;;;;;;;;;5114389;28;20593;-63
2022/01/17 13:02:04;;;;;;;44.58;39.08;;;;;;;;;;5114867;28;20210;-64
2022/01/17 13:04:32;;;;;;;45.65;37.88;;;;;;;;;;5114838;28;20252;-64
2022/01/17 13:07:01;;;;;;;42.85;37.38;;;;;;;;;;5114328;28;20214;-64
2022/01/17 13:09:29;;;;;;;44.17;36.22;;;;;;;;;;5115282;27;20195;-64
2022/01/17 13:11:59;;;;;;;41.03;35.38;;;;;;;;;;5114738;28;20198;-63
2022/01/17 13:14:27;;;;;;;39.83;33.55;;;;;;;;;;5114980;28;20199;-63
2022/01/17 13:16:54;;;;;;;38.45;33.10;;;;;;;;;;5113916;28;20234;-63
2022/01/17 13:19:23;;;;;;;35.80;30.92;;;;;;;;;;5113148;28;20744;-63
2022/01/17 13:21:51;;;;;;;36.70;30.40;;;;;;;;;;5114178;28;20529;-63
2022/01/17 13:24:32;;;;;;;35.50;29.65;;;;;;;;;;5114766;28;20489;-63
2022/01/17 13:27:00;;;;;;;35.85;30.48;;;;;;;;;;5113969;27;20214;-63
2022/01/17 13:29:30;;;;;;;32.80;27.92;;;;;;;;;;5112546;28;20205;-63
2022/01/17 13:31:57;;;;;;;31.73;27.33;;;;;;;;;;5112093;28;20297;-64
2022/01/17 13:34:29;;;;;;;30.75;27.33;;;;;;;;;;5111164;27;20210;-63
2022/01/17 13:36:57;;;;;;;31.98;26.77;;;;;;;;;;5112165;28;20368;-63
2022/01/17 13:39:28;;;;;;;29.45;24.92;;;;;;;;;;5112059;28;20218;-64
2022/01/17 13:41:58;;;;;;;31.58;25.25;;;;;;;;;;5114269;28;20228;-63
2022/01/17 13:44:27;;;;;;;26.27;22.55;;;;;;;;;;5111977;28;20278;-64
2022/01/17 13:46:56;;;;;;;26.27;21.73;;;;;;;;;;5095887;28;20191;-63
2022/01/17 13:49:23;;;;;;;25.23;22.52;;;;;;;;;;5112175;28;20206;-63
2022/01/17 13:51:53;;;;;;;24.63;21.90;;;;;;;;;;5113632;28;20214;-64
2022/01/17 13:54:25;;;;;;;22.70;20.30;;;;;;;;;;5113734;28;20199;-64
2022/01/17 13:56:53;;;;;;;24.23;19.73;;;;;;;;;;5112417;28;20608;-63
2022/01/17 13:59:23;;;;;;;22.58;19.85;;;;;;;;;;5111135;28;20276;-63
2022/01/17 14:01:51;;;;;;;23.77;19.55;;;;;;;;;;5111250;28;20215;-64
2022/01/17 14:04:19;;;;;;;22.75;18.00;;;;;;;;;;5110880;28;20268;-63
2022/01/17 14:06:47;;;;;;;19.73;17.63;;;;;;;;;;5111243;28;20600;-64
2022/01/17 14:09:15;;;;;;;19.85;17.48;;;;;;;;;;5111177;28;20525;-63
2022/01/17 14:11:46;;;;;;;20.00;17.05;;;;;;;;;;5111586;28;20199;-64
2022/01/17 14:14:17;;;;;;;18.38;16.27;;;;;;;;;;5110817;28;20203;-63
2022/01/17 14:16:44;;;;;;;18.52;16.63;;;;;;;;;;5111618;28;20272;-63
2022/01/17 14:19:13;;;;;;;18.40;15.10;;;;;;;;;;5109924;28;20298;-63
2022/01/17 14:21:41;;;;;;;17.70;15.32;;;;;;;;;;5128079;27;20613;-63
2022/01/17 14:24:14;;;;;;;16.65;14.85;;;;;;;;;;5131322;27;20611;-63
2022/01/17 14:26:43;;;;;;;16.40;14.25;;;;;;;;;;5131136;27;20194;-63
2022/01/17 14:29:12;;;;;;;16.42;14.48;;;;;;;;;;5132931;27;20198;-64
2022/01/17 14:31:40;;;;;;;15.60;13.77;;;;;;;;;;5132375;27;20213;-63
2022/01/17 14:34:11;;;;;;;15.02;13.07;;;;;;;;;;5130583;27;20600;-63
2022/01/17 14:36:39;;;;;;;14.50;12.95;;;;;;;;;;5131592;28;20462;-63
2022/01/17 14:39:06;;;;;;;15.02;12.98;;;;;;;;;;5130586;28;20194;-63
2022/01/17 14:41:36;;;;;;;13.60;12.00;;;;;;;;;;5132080;28;20506;-64
2022/01/17 14:44:06;;;;;;;14.05;12.45;;;;;;;;;;5130964;28;20206;-64
2022/01/17 14:46:34;;;;;;;13.05;11.60;;;;;;;;;;5130981;28;20190;-64
2022/01/17 14:49:01;;;;;;;13.25;11.30;;;;;;;;;;5130843;28;20221;-63
2022/01/17 14:51:30;;;;;;;12.63;11.32;;;;;;;;;;5131474;28;20220;-64
2022/01/17 14:54:06;;;;;;;12.30;10.98;;;;;;;;;;5130750;28;20221;-64
2022/01/17 14:59:40;;;;;;;12.80;10.52;;;;;;;;;;5130537;28;20326;-63
2022/01/17 15:02:17;;;;;;;11.35;10.07;;;;;;;;;;5131653;28;20267;-63
2022/01/17 15:04:44;;;;;;;10.65;9.52;;;;;;;;;;5130653;28;20409;-63